sensor_id;sensor_type;location;lat;lon;timestamp;P1;durP1;ratioP1;P2;durP2;ratioP2
32812;SDS011;19162;48.254;11.454;2023-04-15T00:00:58;5.85;;;4.60;;
32812;SDS011;19162;48.254;11.454;2023-04-15T00:03:58;6.57;;;4.65;;
32812;SDS011;19162;48.254;11.454;2023-04-15T00:06:58;6.18;;;4.40;;
32812;SDS011;19162;48.254;11.454;2023-04-15T00:09:59;6.35;;;4.47;;
32812;SDS011;19162;48.254;11.454;2023-04-15T00:12:59;4.80;;;4.20;;
32812;SDS011;19162;48.254;11.454;2023-04-15T00:16:01;4.30;;;3.90;;
32812;SDS011;19162;48.254;11.454;2023-04-15T00:19:01;5.13;;;4.10;;
32812;SDS011;19162;48.254;11.454;2023-04-15T00:22:01;7.50;;;4.30;;
32812;SDS011;19162;48.254;11.454;2023-04-15T00:25:01;5.57;;;4.20;;
32812;SDS011;19162;48.254;11.454;2023-04-15T00:28:02;5.78;;;4.00;;
32812;SDS011;19162;48.254;11.454;2023-04-15T00:31:02;4.68;;;3.75;;
32812;SDS011;19162;48.254;11.454;2023-04-15T00:34:03;6.03;;;4.13;;
32812;SDS011;19162;48.254;11.454;2023-04-15T00:37:03;4.10;;;3.70;;
32812;SDS011;19162;48.254;11.454;2023-04-15T00:40:04;5.47;;;3.97;;
32812;SDS011;19162;48.254;11.454;2023-04-15T00:43:04;6.18;;;3.88;;
32812;SDS011;19162;48.254;11.454;2023-04-15T00:46:04;4.75;;;4.05;;
32812;SDS011;19162;48.254;11.454;2023-04-15T00:49:05;5.28;;;3.75;;
32812;SDS011;19162;48.254;11.454;2023-04-15T00:52:06;6.82;;;4.47;;
32812;SDS011;19162;48.254;11.454;2023-04-15T00:55:06;5.83;;;4.33;;
32812;SDS011;19162;48.254;11.454;2023-04-15T00:58:06;6.82;;;4.70;;
32812;SDS011;19162;48.254;11.454;2023-04-15T01:01:07;4.90;;;4.43;;
32812;SDS011;19162;48.254;11.454;2023-04-15T01:04:07;5.65;;;4.72;;
32812;SDS011;19162;48.254;11.454;2023-04-15T01:07:09;6.35;;;4.65;;
32812;SDS011;19162;48.254;11.454;2023-04-15T01:10:10;5.50;;;4.95;;
32812;SDS011;19162;48.254;11.454;2023-04-15T01:13:10;6.00;;;4.37;;
32812;SDS011;19162;48.254;11.454;2023-04-15T01:16:10;5.20;;;4.43;;
32812;SDS011;19162;48.254;11.454;2023-04-15T01:19:11;5.63;;;5.13;;
32812;SDS011;19162;48.254;11.454;2023-04-15T01:22:13;5.60;;;5.03;;
32812;SDS011;19162;48.254;11.454;2023-04-15T01:25:17;7.30;;;5.20;;
32812;SDS011;19162;48.254;11.454;2023-04-15T01:28:17;8.02;;;5.63;;
32812;SDS011;19162;48.254;11.454;2023-04-15T01:31:17;5.87;;;5.33;;
32812;SDS011;19162;48.254;11.454;2023-04-15T01:34:18;6.00;;;4.97;;
32812;SDS011;19162;48.254;11.454;2023-04-15T01:37:18;5.82;;;5.05;;
32812;SDS011;19162;48.254;11.454;2023-04-15T01:40:18;7.20;;;5.72;;
32812;SDS011;19162;48.254;11.454;2023-04-15T01:43:19;5.85;;;5.10;;
32812;SDS011;19162;48.254;11.454;2023-04-15T01:46:19;6.13;;;5.55;;
32812;SDS011;19162;48.254;11.454;2023-04-15T01:49:19;6.65;;;5.40;;
32812;SDS011;19162;48.254;11.454;2023-04-15T01:52:20;6.00;;;5.38;;
32812;SDS011;19162;48.254;11.454;2023-04-15T01:55:20;6.23;;;5.63;;
32812;SDS011;19162;48.254;11.454;2023-04-15T01:58:20;6.27;;;5.67;;
32812;SDS011;19162;48.254;11.454;2023-04-15T02:01:21;5.97;;;5.38;;
32812;SDS011;19162;48.254;11.454;2023-04-15T02:04:21;6.28;;;5.68;;
32812;SDS011;19162;48.254;11.454;2023-04-15T02:07:22;5.88;;;5.38;;
32812;SDS011;19162;48.254;11.454;2023-04-15T02:10:23;5.70;;;5.20;;
32812;SDS011;19162;48.254;11.454;2023-04-15T02:13:23;6.20;;;5.67;;
32812;SDS011;19162;48.254;11.454;2023-04-15T02:16:23;5.70;;;5.10;;
32812;SDS011;19162;48.254;11.454;2023-04-15T02:19:23;6.10;;;5.53;;
32812;SDS011;19162;48.254;11.454;2023-04-15T02:22:24;8.43;;;5.72;;
32812;SDS011;19162;48.254;11.454;2023-04-15T02:25:24;7.25;;;5.50;;
32812;SDS011;19162;48.254;11.454;2023-04-15T02:28:24;5.83;;;5.17;;
32812;SDS011;19162;48.254;11.454;2023-04-15T02:31:25;6.15;;;5.50;;
32812;SDS011;19162;48.254;11.454;2023-04-15T02:34:25;6.10;;;5.50;;
32812;SDS011;19162;48.254;11.454;2023-04-15T02:37:26;6.70;;;5.65;;
32812;SDS011;19162;48.254;11.454;2023-04-15T02:40:27;5.65;;;5.15;;
32812;SDS011;19162;48.254;11.454;2023-04-15T02:43:27;7.22;;;4.97;;
32812;SDS011;19162;48.254;11.454;2023-04-15T02:46:28;5.22;;;4.78;;
32812;SDS011;19162;48.254;11.454;2023-04-15T02:49:28;7.25;;;5.20;;
32812;SDS011;19162;48.254;11.454;2023-04-15T02:52:29;5.47;;;5.00;;
32812;SDS011;19162;48.254;11.454;2023-04-15T02:55:30;6.43;;;4.97;;
32812;SDS011;19162;48.254;11.454;2023-04-15T02:58:30;5.60;;;5.10;;
32812;SDS011;19162;48.254;11.454;2023-04-15T03:01:30;5.43;;;4.93;;
32812;SDS011;19162;48.254;11.454;2023-04-15T03:04:30;6.60;;;5.38;;
32812;SDS011;19162;48.254;11.454;2023-04-15T03:07:31;5.50;;;5.10;;
32812;SDS011;19162;48.254;11.454;2023-04-15T03:10:31;5.65;;;5.15;;
32812;SDS011;19162;48.254;11.454;2023-04-15T03:13:31;6.00;;;5.43;;
32812;SDS011;19162;48.254;11.454;2023-04-15T03:16:31;5.03;;;4.57;;
32812;SDS011;19162;48.254;11.454;2023-04-15T03:19:32;6.28;;;5.68;;
32812;SDS011;19162;48.254;11.454;2023-04-15T03:22:32;5.90;;;5.00;;
32812;SDS011;19162;48.254;11.454;2023-04-15T03:25:32;5.28;;;4.88;;
32812;SDS011;19162;48.254;11.454;2023-04-15T03:28:32;5.13;;;4.67;;
32812;SDS011;19162;48.254;11.454;2023-04-15T03:31:32;5.83;;;5.17;;
32812;SDS011;19162;48.254;11.454;2023-04-15T03:34:33;6.97;;;5.70;;
32812;SDS011;19162;48.254;11.454;2023-04-15T03:37:33;5.70;;;5.30;;
32812;SDS011;19162;48.254;11.454;2023-04-15T03:40:33;5.53;;;5.07;;
32812;SDS011;19162;48.254;11.454;2023-04-15T03:43:33;5.28;;;4.82;;
32812;SDS011;19162;48.254;11.454;2023-04-15T03:46:34;6.25;;;5.53;;
32812;SDS011;19162;48.254;11.454;2023-04-15T03:49:34;5.77;;;5.27;;
32812;SDS011;19162;48.254;11.454;2023-04-15T03:52:35;9.15;;;5.88;;
32812;SDS011;19162;48.254;11.454;2023-04-15T03:55:35;5.70;;;5.03;;
32812;SDS011;19162;48.254;11.454;2023-04-15T03:58:35;6.72;;;6.07;;
32812;SDS011;19162;48.254;11.454;2023-04-15T04:01:36;6.72;;;5.15;;
32812;SDS011;19162;48.254;11.454;2023-04-15T04:04:36;5.90;;;5.30;;
32812;SDS011;19162;48.254;11.454;2023-04-15T04:07:36;5.78;;;5.35;;
32812;SDS011;19162;48.254;11.454;2023-04-15T04:10:36;6.00;;;5.00;;
32812;SDS011;19162;48.254;11.454;2023-04-15T04:13:36;6.38;;;5.47;;
32812;SDS011;19162;48.254;11.454;2023-04-15T04:16:37;5.57;;;5.13;;
32812;SDS011;19162;48.254;11.454;2023-04-15T04:19:37;5.63;;;5.10;;
32812;SDS011;19162;48.254;11.454;2023-04-15T04:22:37;7.18;;;4.93;;
32812;SDS011;19162;48.254;11.454;2023-04-15T04:25:38;6.07;;;5.45;;
32812;SDS011;19162;48.254;11.454;2023-04-15T04:28:39;5.32;;;4.80;;
32812;SDS011;19162;48.254;11.454;2023-04-15T04:31:39;7.32;;;5.60;;
32812;SDS011;19162;48.254;11.454;2023-04-15T04:34:39;6.03;;;5.00;;
32812;SDS011;19162;48.254;11.454;2023-04-15T04:37:40;6.32;;;4.72;;
32812;SDS011;19162;48.254;11.454;2023-04-15T04:40:40;6.07;;;5.05;;
32812;SDS011;19162;48.254;11.454;2023-04-15T04:43:41;5.27;;;4.77;;
32812;SDS011;19162;48.254;11.454;2023-04-15T04:46:41;4.90;;;4.40;;
32812;SDS011;19162;48.254;11.454;2023-04-15T04:49:41;5.73;;;4.43;;
32812;SDS011;19162;48.254;11.454;2023-04-15T04:52:41;6.28;;;4.78;;
32812;SDS011;19162;48.254;11.454;2023-04-15T04:55:41;6.00;;;5.40;;
32812;SDS011;19162;48.254;11.454;2023-04-15T04:58:42;6.25;;;5.13;;
32812;SDS011;19162;48.254;11.454;2023-04-15T05:01:42;7.43;;;4.47;;
32812;SDS011;19162;48.254;11.454;2023-04-15T05:04:42;5.40;;;4.65;;
32812;SDS011;19162;48.254;11.454;2023-04-15T05:07:42;5.57;;;5.07;;
32812;SDS011;19162;48.254;11.454;2023-04-15T05:10:42;5.65;;;4.20;;
32812;SDS011;19162;48.254;11.454;2023-04-15T05:13:43;5.35;;;3.97;;
32812;SDS011;19162;48.254;11.454;2023-04-15T05:16:43;5.43;;;4.37;;
32812;SDS011;19162;48.254;11.454;2023-04-15T05:19:43;6.17;;;4.47;;
32812;SDS011;19162;48.254;11.454;2023-04-15T05:22:43;4.17;;;3.67;;
32812;SDS011;19162;48.254;11.454;2023-04-15T05:25:44;4.30;;;3.77;;
32812;SDS011;19162;48.254;11.454;2023-04-15T05:28:44;6.07;;;3.83;;
32812;SDS011;19162;48.254;11.454;2023-04-15T05:31:45;4.00;;;3.58;;
32812;SDS011;19162;48.254;11.454;2023-04-15T05:34:45;4.22;;;3.28;;
32812;SDS011;19162;48.254;11.454;2023-04-15T05:37:46;3.83;;;3.20;;
32812;SDS011;19162;48.254;11.454;2023-04-15T05:40:46;4.57;;;3.37;;
32812;SDS011;19162;48.254;11.454;2023-04-15T05:43:46;4.77;;;3.53;;
32812;SDS011;19162;48.254;11.454;2023-04-15T05:46:46;5.00;;;3.30;;
32812;SDS011;19162;48.254;11.454;2023-04-15T05:49:46;5.40;;;3.05;;
32812;SDS011;19162;48.254;11.454;2023-04-15T05:52:47;5.78;;;3.08;;
32812;SDS011;19162;48.254;11.454;2023-04-15T05:55:47;4.18;;;3.05;;
32812;SDS011;19162;48.254;11.454;2023-04-15T05:58:47;4.10;;;2.93;;
32812;SDS011;19162;48.254;11.454;2023-04-15T06:01:47;5.97;;;2.90;;
32812;SDS011;19162;48.254;11.454;2023-04-15T06:04:48;3.03;;;2.70;;
32812;SDS011;19162;48.254;11.454;2023-04-15T06:07:48;3.27;;;2.80;;
32812;SDS011;19162;48.254;11.454;2023-04-15T06:10:49;5.63;;;3.05;;
32812;SDS011;19162;48.254;11.454;2023-04-15T06:13:49;4.65;;;2.80;;
32812;SDS011;19162;48.254;11.454;2023-04-15T06:16:49;4.73;;;2.53;;
32812;SDS011;19162;48.254;11.454;2023-04-15T06:19:50;3.67;;;2.30;;
32812;SDS011;19162;48.254;11.454;2023-04-15T06:22:54;4.28;;;2.25;;
32812;SDS011;19162;48.254;11.454;2023-04-15T06:25:54;5.53;;;2.67;;
32812;SDS011;19162;48.254;11.454;2023-04-15T06:28:55;2.92;;;2.00;;
32812;SDS011;19162;48.254;11.454;2023-04-15T06:31:55;4.13;;;2.55;;
32812;SDS011;19162;48.254;11.454;2023-04-15T06:34:55;3.88;;;2.25;;
32812;SDS011;19162;48.254;11.454;2023-04-15T06:37:55;3.63;;;2.00;;
32812;SDS011;19162;48.254;11.454;2023-04-15T06:40:56;3.30;;;2.55;;
32812;SDS011;19162;48.254;11.454;2023-04-15T06:43:56;5.25;;;2.80;;
32812;SDS011;19162;48.254;11.454;2023-04-15T06:46:56;2.53;;;2.20;;
32812;SDS011;19162;48.254;11.454;2023-04-15T06:49:57;4.55;;;1.88;;
32812;SDS011;19162;48.254;11.454;2023-04-15T06:52:57;4.27;;;2.20;;
32812;SDS011;19162;48.254;11.454;2023-04-15T06:55:57;3.47;;;2.38;;
32812;SDS011;19162;48.254;11.454;2023-04-15T06:58:58;2.37;;;2.00;;
32812;SDS011;19162;48.254;11.454;2023-04-15T07:01:58;4.28;;;2.08;;
32812;SDS011;19162;48.254;11.454;2023-04-15T07:04:58;3.42;;;2.10;;
32812;SDS011;19162;48.254;11.454;2023-04-15T07:07:58;5.40;;;2.00;;
32812;SDS011;19162;48.254;11.454;2023-04-15T07:10:59;4.22;;;2.47;;
32812;SDS011;19162;48.254;11.454;2023-04-15T07:14:00;4.90;;;2.58;;
32812;SDS011;19162;48.254;11.454;2023-04-15T07:17:00;2.77;;;1.83;;
32812;SDS011;19162;48.254;11.454;2023-04-15T07:20:01;5.50;;;2.03;;
32812;SDS011;19162;48.254;11.454;2023-04-15T07:23:01;3.83;;;2.13;;
32812;SDS011;19162;48.254;11.454;2023-04-15T07:26:01;4.97;;;1.93;;
32812;SDS011;19162;48.254;11.454;2023-04-15T07:29:02;3.08;;;2.22;;
32812;SDS011;19162;48.254;11.454;2023-04-15T07:32:02;5.75;;;2.38;;
32812;SDS011;19162;48.254;11.454;2023-04-15T07:35:03;4.10;;;2.00;;
32812;SDS011;19162;48.254;11.454;2023-04-15T07:38:03;3.20;;;1.70;;
32812;SDS011;19162;48.254;11.454;2023-04-15T07:41:03;3.80;;;2.08;;
32812;SDS011;19162;48.254;11.454;2023-04-15T07:44:03;4.65;;;2.35;;
32812;SDS011;19162;48.254;11.454;2023-04-15T07:47:04;5.68;;;2.30;;
32812;SDS011;19162;48.254;11.454;2023-04-15T07:50:05;3.90;;;2.10;;
32812;SDS011;19162;48.254;11.454;2023-04-15T07:53:05;5.18;;;2.40;;
32812;SDS011;19162;48.254;11.454;2023-04-15T07:56:06;2.72;;;1.65;;
32812;SDS011;19162;48.254;11.454;2023-04-15T07:59:06;3.17;;;2.20;;
32812;SDS011;19162;48.254;11.454;2023-04-15T08:02:08;4.63;;;2.10;;
32812;SDS011;19162;48.254;11.454;2023-04-15T08:05:09;5.10;;;2.40;;
32812;SDS011;19162;48.254;11.454;2023-04-15T08:08:09;4.40;;;2.13;;
32812;SDS011;19162;48.254;11.454;2023-04-15T08:11:10;4.27;;;2.33;;
32812;SDS011;19162;48.254;11.454;2023-04-15T08:14:10;4.22;;;2.38;;
32812;SDS011;19162;48.254;11.454;2023-04-15T08:17:10;4.72;;;2.20;;
32812;SDS011;19162;48.254;11.454;2023-04-15T08:20:11;4.82;;;2.60;;
32812;SDS011;19162;48.254;11.454;2023-04-15T08:23:12;2.60;;;1.70;;
32812;SDS011;19162;48.254;11.454;2023-04-15T08:26:12;4.50;;;2.35;;
32812;SDS011;19162;48.254;11.454;2023-04-15T08:29:13;3.38;;;2.10;;
32812;SDS011;19162;48.254;11.454;2023-04-15T08:32:13;3.60;;;2.20;;
32812;SDS011;19162;48.254;11.454;2023-04-15T08:35:13;3.33;;;2.03;;
32812;SDS011;19162;48.254;11.454;2023-04-15T08:38:14;4.18;;;2.90;;
32812;SDS011;19162;48.254;11.454;2023-04-15T08:41:17;5.60;;;2.20;;
32812;SDS011;19162;48.254;11.454;2023-04-15T08:44:19;6.22;;;2.50;;
32812;SDS011;19162;48.254;11.454;2023-04-15T08:47:20;5.75;;;2.63;;
32812;SDS011;19162;48.254;11.454;2023-04-15T08:50:21;3.67;;;2.10;;
32812;SDS011;19162;48.254;11.454;2023-04-15T08:53:23;2.17;;;1.83;;
32812;SDS011;19162;48.254;11.454;2023-04-15T08:56:24;3.85;;;2.38;;
32812;SDS011;19162;48.254;11.454;2023-04-15T08:59:29;4.97;;;2.40;;
32812;SDS011;19162;48.254;11.454;2023-04-15T09:02:29;4.05;;;2.53;;
32812;SDS011;19162;48.254;11.454;2023-04-15T09:05:31;3.90;;;2.40;;
32812;SDS011;19162;48.254;11.454;2023-04-15T09:08:32;5.50;;;2.00;;
32812;SDS011;19162;48.254;11.454;2023-04-15T09:11:33;4.72;;;2.50;;
32812;SDS011;19162;48.254;11.454;2023-04-15T09:14:33;4.17;;;2.83;;
32812;SDS011;19162;48.254;11.454;2023-04-15T09:17:34;2.90;;;2.25;;
32812;SDS011;19162;48.254;11.454;2023-04-15T09:20:38;2.47;;;2.28;;
32812;SDS011;19162;48.254;11.454;2023-04-15T09:23:41;4.45;;;2.58;;
32812;SDS011;19162;48.254;11.454;2023-04-15T09:26:52;2.92;;;2.30;;
32812;SDS011;19162;48.254;11.454;2023-04-15T09:29:56;3.90;;;2.88;;
32812;SDS011;19162;48.254;11.454;2023-04-15T09:33:00;3.67;;;3.37;;
32812;SDS011;19162;48.254;11.454;2023-04-15T09:36:06;3.20;;;2.90;;
32812;SDS011;19162;48.254;11.454;2023-04-15T09:39:07;3.80;;;2.90;;
32812;SDS011;19162;48.254;11.454;2023-04-15T09:42:07;4.70;;;3.20;;
32812;SDS011;19162;48.254;11.454;2023-04-15T09:45:10;3.90;;;3.33;;
32812;SDS011;19162;48.254;11.454;2023-04-15T09:48:15;4.50;;;3.60;;
32812;SDS011;19162;48.254;11.454;2023-04-15T09:51:15;4.60;;;3.70;;
32812;SDS011;19162;48.254;11.454;2023-04-15T09:54:19;4.72;;;3.47;;
32812;SDS011;19162;48.254;11.454;2023-04-15T09:57:22;5.43;;;3.20;;
32812;SDS011;19162;48.254;11.454;2023-04-15T10:00:23;4.30;;;2.80;;
32812;SDS011;19162;48.254;11.454;2023-04-15T10:03:27;4.20;;;2.88;;
32812;SDS011;19162;48.254;11.454;2023-04-15T10:06:27;3.65;;;2.97;;
32812;SDS011;19162;48.254;11.454;2023-04-15T10:09:28;5.15;;;3.42;;
32812;SDS011;19162;48.254;11.454;2023-04-15T10:12:29;3.65;;;3.35;;
32812;SDS011;19162;48.254;11.454;2023-04-15T10:15:30;3.55;;;3.25;;
32812;SDS011;19162;48.254;11.454;2023-04-15T10:18:31;3.80;;;3.50;;
32812;SDS011;19162;48.254;11.454;2023-04-15T10:21:33;7.43;;;3.90;;
32812;SDS011;19162;48.254;11.454;2023-04-15T10:24:34;4.15;;;3.25;;
32812;SDS011;19162;48.254;11.454;2023-04-15T10:27:36;6.35;;;4.43;;
32812;SDS011;19162;48.254;11.454;2023-04-15T10:30:38;4.17;;;3.80;;
32812;SDS011;19162;48.254;11.454;2023-04-15T10:33:38;4.40;;;3.78;;
32812;SDS011;19162;48.254;11.454;2023-04-15T10:36:39;6.75;;;4.70;;
32812;SDS011;19162;48.254;11.454;2023-04-15T10:39:39;4.93;;;4.27;;
32812;SDS011;19162;48.254;11.454;2023-04-15T10:42:40;5.13;;;4.63;;
32812;SDS011;19162;48.254;11.454;2023-04-15T10:45:43;5.97;;;5.50;;
32812;SDS011;19162;48.254;11.454;2023-04-15T10:51:45;9.68;;;4.68;;
32812;SDS011;19162;48.254;11.454;2023-04-15T10:54:45;5.57;;;5.07;;
32812;SDS011;19162;48.254;11.454;2023-04-15T10:57:46;7.32;;;5.05;;
32812;SDS011;19162;48.254;11.454;2023-04-15T11:00:50;7.22;;;5.43;;
32812;SDS011;19162;48.254;11.454;2023-04-15T11:03:54;5.15;;;4.65;;
32812;SDS011;19162;48.254;11.454;2023-04-15T11:07:04;6.00;;;4.70;;
32812;SDS011;19162;48.254;11.454;2023-04-15T11:13:18;7.80;;;5.30;;
32812;SDS011;19162;48.254;11.454;2023-04-15T11:16:20;5.93;;;5.35;;
32812;SDS011;19162;48.254;11.454;2023-04-15T11:19:21;5.72;;;5.05;;
32812;SDS011;19162;48.254;11.454;2023-04-15T11:22:22;6.03;;;5.15;;
32812;SDS011;19162;48.254;11.454;2023-04-15T11:25:25;6.40;;;5.80;;
32812;SDS011;19162;48.254;11.454;2023-04-15T11:28:27;6.40;;;5.78;;
32812;SDS011;19162;48.254;11.454;2023-04-15T11:31:27;6.22;;;5.70;;
32812;SDS011;19162;48.254;11.454;2023-04-15T11:34:28;5.83;;;5.23;;
32812;SDS011;19162;48.254;11.454;2023-04-15T11:37:28;5.55;;;5.15;;
32812;SDS011;19162;48.254;11.454;2023-04-15T11:40:29;4.88;;;4.32;;
32812;SDS011;19162;48.254;11.454;2023-04-15T11:43:30;5.20;;;4.60;;
32812;SDS011;19162;48.254;11.454;2023-04-15T11:46:30;5.45;;;4.95;;
32812;SDS011;19162;48.254;11.454;2023-04-15T11:49:31;6.18;;;4.43;;
32812;SDS011;19162;48.254;11.454;2023-04-15T11:52:32;4.00;;;3.70;;
32812;SDS011;19162;48.254;11.454;2023-04-15T11:55:43;4.13;;;3.72;;
32812;SDS011;19162;48.254;11.454;2023-04-15T11:58:43;3.58;;;3.28;;
32812;SDS011;19162;48.254;11.454;2023-04-15T12:01:45;4.03;;;3.60;;
32812;SDS011;19162;48.254;11.454;2023-04-15T12:04:46;3.97;;;3.47;;
32812;SDS011;19162;48.254;11.454;2023-04-15T12:07:56;3.37;;;3.07;;
32812;SDS011;19162;48.254;11.454;2023-04-15T12:10:57;3.63;;;2.75;;
32812;SDS011;19162;48.254;11.454;2023-04-15T12:14:01;3.05;;;2.78;;
32812;SDS011;19162;48.254;11.454;2023-04-15T12:17:02;4.35;;;2.20;;
32812;SDS011;19162;48.254;11.454;2023-04-15T12:20:03;3.85;;;2.10;;
32812;SDS011;19162;48.254;11.454;2023-04-15T12:23:04;3.38;;;2.60;;
32812;SDS011;19162;48.254;11.454;2023-04-15T12:26:05;4.13;;;2.50;;
32812;SDS011;19162;48.254;11.454;2023-04-15T12:29:06;2.88;;;2.03;;
32812;SDS011;19162;48.254;11.454;2023-04-15T12:32:11;2.78;;;1.80;;
32812;SDS011;19162;48.254;11.454;2023-04-15T12:35:11;3.83;;;2.80;;
32812;SDS011;19162;48.254;11.454;2023-04-15T12:38:12;5.75;;;3.20;;
32812;SDS011;19162;48.254;11.454;2023-04-15T12:41:12;4.93;;;3.17;;
32812;SDS011;19162;48.254;11.454;2023-04-15T12:44:12;4.47;;;4.03;;
32812;SDS011;19162;48.254;11.454;2023-04-15T12:47:12;5.28;;;3.58;;
32812;SDS011;19162;48.254;11.454;2023-04-15T12:50:13;4.17;;;3.73;;
32812;SDS011;19162;48.254;11.454;2023-04-15T12:53:13;5.78;;;3.55;;
32812;SDS011;19162;48.254;11.454;2023-04-15T12:56:13;5.30;;;4.47;;
32812;SDS011;19162;48.254;11.454;2023-04-15T12:59:13;4.67;;;3.87;;
32812;SDS011;19162;48.254;11.454;2023-04-15T13:02:14;4.78;;;4.10;;
32812;SDS011;19162;48.254;11.454;2023-04-15T13:05:14;5.25;;;4.07;;
32812;SDS011;19162;48.254;11.454;2023-04-15T13:08:14;4.93;;;4.43;;
32812;SDS011;19162;48.254;11.454;2023-04-15T13:11:15;5.85;;;4.38;;
32812;SDS011;19162;48.254;11.454;2023-04-15T13:14:16;6.22;;;4.80;;
32812;SDS011;19162;48.254;11.454;2023-04-15T13:17:16;6.28;;;4.53;;
32812;SDS011;19162;48.254;11.454;2023-04-15T13:20:19;5.47;;;4.25;;
32812;SDS011;19162;48.254;11.454;2023-04-15T13:23:19;6.40;;;4.87;;
32812;SDS011;19162;48.254;11.454;2023-04-15T13:26:19;5.13;;;4.53;;
32812;SDS011;19162;48.254;11.454;2023-04-15T13:29:20;6.70;;;4.80;;
32812;SDS011;19162;48.254;11.454;2023-04-15T13:32:21;6.97;;;5.20;;
32812;SDS011;19162;48.254;11.454;2023-04-15T13:35:21;8.80;;;6.10;;
32812;SDS011;19162;48.254;11.454;2023-04-15T13:38:21;6.90;;;5.70;;
32812;SDS011;19162;48.254;11.454;2023-04-15T13:41:22;7.57;;;6.60;;
32812;SDS011;19162;48.254;11.454;2023-04-15T13:44:22;7.32;;;5.43;;
32812;SDS011;19162;48.254;11.454;2023-04-15T13:47:22;7.30;;;5.20;;
32812;SDS011;19162;48.254;11.454;2023-04-15T13:50:22;4.40;;;4.00;;
32812;SDS011;19162;48.254;11.454;2023-04-15T13:53:23;4.05;;;3.63;;
32812;SDS011;19162;48.254;11.454;2023-04-15T13:56:23;5.10;;;4.10;;
32812;SDS011;19162;48.254;11.454;2023-04-15T13:59:23;3.83;;;3.53;;
32812;SDS011;19162;48.254;11.454;2023-04-15T14:02:23;3.90;;;3.50;;
32812;SDS011;19162;48.254;11.454;2023-04-15T14:05:23;5.23;;;3.67;;
32812;SDS011;19162;48.254;11.454;2023-04-15T14:08:24;3.30;;;3.00;;
32812;SDS011;19162;48.254;11.454;2023-04-15T14:11:24;3.33;;;2.90;;
32812;SDS011;19162;48.254;11.454;2023-04-15T14:14:25;3.30;;;3.00;;
32812;SDS011;19162;48.254;11.454;2023-04-15T14:17:25;3.57;;;2.97;;
32812;SDS011;19162;48.254;11.454;2023-04-15T14:20:25;4.13;;;3.72;;
32812;SDS011;19162;48.254;11.454;2023-04-15T14:23:26;4.13;;;3.73;;
32812;SDS011;19162;48.254;11.454;2023-04-15T14:26:26;4.18;;;3.78;;
32812;SDS011;19162;48.254;11.454;2023-04-15T14:29:26;3.80;;;3.40;;
32812;SDS011;19162;48.254;11.454;2023-04-15T14:32:27;5.43;;;3.90;;
32812;SDS011;19162;48.254;11.454;2023-04-15T14:35:27;3.95;;;3.63;;
32812;SDS011;19162;48.254;11.454;2023-04-15T14:38:27;4.40;;;4.00;;
32812;SDS011;19162;48.254;11.454;2023-04-15T14:41:27;3.77;;;3.47;;
32812;SDS011;19162;48.254;11.454;2023-04-15T14:44:28;4.80;;;3.90;;
32812;SDS011;19162;48.254;11.454;2023-04-15T14:47:28;4.87;;;4.40;;
32812;SDS011;19162;48.254;11.454;2023-04-15T14:50:28;5.37;;;3.73;;
32812;SDS011;19162;48.254;11.454;2023-04-15T14:53:28;4.03;;;3.63;;
32812;SDS011;19162;48.254;11.454;2023-04-15T14:56:28;3.83;;;3.53;;
32812;SDS011;19162;48.254;11.454;2023-04-15T14:59:29;4.90;;;3.70;;
32812;SDS011;19162;48.254;11.454;2023-04-15T15:02:29;3.72;;;3.42;;
32812;SDS011;19162;48.254;11.454;2023-04-15T15:05:29;4.17;;;3.83;;
32812;SDS011;19162;48.254;11.454;2023-04-15T15:08:30;5.63;;;3.80;;
32812;SDS011;19162;48.254;11.454;2023-04-15T15:11:30;7.57;;;6.27;;
32812;SDS011;19162;48.254;11.454;2023-04-15T15:14:30;9.48;;;7.88;;
32812;SDS011;19162;48.254;11.454;2023-04-15T15:17:30;6.63;;;6.03;;
32812;SDS011;19162;48.254;11.454;2023-04-15T15:20:31;6.33;;;5.70;;
32812;SDS011;19162;48.254;11.454;2023-04-15T15:23:32;7.20;;;6.40;;
32812;SDS011;19162;48.254;11.454;2023-04-15T15:26:32;5.17;;;4.77;;
32812;SDS011;19162;48.254;11.454;2023-04-15T15:29:32;5.50;;;5.10;;
32812;SDS011;19162;48.254;11.454;2023-04-15T15:32:32;5.25;;;4.85;;
32812;SDS011;19162;48.254;11.454;2023-04-15T15:35:33;5.47;;;4.97;;
32812;SDS011;19162;48.254;11.454;2023-04-15T15:38:33;4.60;;;4.30;;
32812;SDS011;19162;48.254;11.454;2023-04-15T15:41:33;5.78;;;4.68;;
32812;SDS011;19162;48.254;11.454;2023-04-15T15:44:33;5.40;;;4.87;;
32812;SDS011;19162;48.254;11.454;2023-04-15T15:47:35;5.50;;;5.00;;
32812;SDS011;19162;48.254;11.454;2023-04-15T15:50:35;6.18;;;4.72;;
32812;SDS011;19162;48.254;11.454;2023-04-15T15:53:35;4.97;;;4.47;;
32812;SDS011;19162;48.254;11.454;2023-04-15T15:56:35;6.43;;;5.85;;
32812;SDS011;19162;48.254;11.454;2023-04-15T15:59:38;5.88;;;5.38;;
32812;SDS011;19162;48.254;11.454;2023-04-15T16:02:40;6.15;;;5.75;;
32812;SDS011;19162;48.254;11.454;2023-04-15T16:05:41;5.20;;;4.78;;
32812;SDS011;19162;48.254;11.454;2023-04-15T16:08:41;3.97;;;3.67;;
32812;SDS011;19162;48.254;11.454;2023-04-15T16:11:41;4.43;;;4.03;;
32812;SDS011;19162;48.254;11.454;2023-04-15T16:14:41;4.73;;;4.20;;
32812;SDS011;19162;48.254;11.454;2023-04-15T16:17:42;4.10;;;3.70;;
32812;SDS011;19162;48.254;11.454;2023-04-15T16:20:42;4.22;;;3.92;;
32812;SDS011;19162;48.254;11.454;2023-04-15T16:23:42;5.32;;;4.30;;
32812;SDS011;19162;48.254;11.454;2023-04-15T16:26:43;4.53;;;4.13;;
32812;SDS011;19162;48.254;11.454;2023-04-15T16:29:43;5.10;;;4.17;;
32812;SDS011;19162;48.254;11.454;2023-04-15T16:32:43;5.30;;;4.35;;
32812;SDS011;19162;48.254;11.454;2023-04-15T16:35:43;3.93;;;3.63;;
32812;SDS011;19162;48.254;11.454;2023-04-15T16:38:43;4.25;;;3.85;;
32812;SDS011;19162;48.254;11.454;2023-04-15T16:41:47;3.85;;;3.13;;
32812;SDS011;19162;48.254;11.454;2023-04-15T16:44:47;4.20;;;3.00;;
32812;SDS011;19162;48.254;11.454;2023-04-15T16:47:48;4.27;;;3.97;;
32812;SDS011;19162;48.254;11.454;2023-04-15T16:50:48;6.53;;;5.93;;
32812;SDS011;19162;48.254;11.454;2023-04-15T16:53:48;4.63;;;4.17;;
32812;SDS011;19162;48.254;11.454;2023-04-15T16:56:48;3.80;;;3.50;;
32812;SDS011;19162;48.254;11.454;2023-04-15T16:59:48;3.33;;;3.03;;
32812;SDS011;19162;48.254;11.454;2023-04-15T17:02:49;3.97;;;3.67;;
32812;SDS011;19162;48.254;11.454;2023-04-15T17:05:49;4.33;;;3.07;;
32812;SDS011;19162;48.254;11.454;2023-04-15T17:08:49;2.67;;;2.47;;
32812;SDS011;19162;48.254;11.454;2023-04-15T17:11:50;4.65;;;2.83;;
32812;SDS011;19162;48.254;11.454;2023-04-15T17:14:50;3.57;;;2.17;;
32812;SDS011;19162;48.254;11.454;2023-04-15T17:17:50;3.33;;;3.00;;
32812;SDS011;19162;48.254;11.454;2023-04-15T17:20:51;3.90;;;3.10;;
32812;SDS011;19162;48.254;11.454;2023-04-15T17:23:51;4.93;;;3.00;;
32812;SDS011;19162;48.254;11.454;2023-04-15T17:26:53;3.53;;;3.10;;
32812;SDS011;19162;48.254;11.454;2023-04-15T17:29:53;4.67;;;4.30;;
32812;SDS011;19162;48.254;11.454;2023-04-15T17:32:53;4.23;;;3.83;;
32812;SDS011;19162;48.254;11.454;2023-04-15T17:35:53;3.67;;;3.37;;
32812;SDS011;19162;48.254;11.454;2023-04-15T17:38:54;3.10;;;2.80;;
32812;SDS011;19162;48.254;11.454;2023-04-15T17:41:55;3.88;;;3.58;;
32812;SDS011;19162;48.254;11.454;2023-04-15T17:44:56;3.67;;;3.38;;
32812;SDS011;19162;48.254;11.454;2023-04-15T17:47:56;3.00;;;2.80;;
32812;SDS011;19162;48.254;11.454;2023-04-15T17:50:58;4.47;;;4.05;;
32812;SDS011;19162;48.254;11.454;2023-04-15T17:53:59;4.70;;;3.72;;
32812;SDS011;19162;48.254;11.454;2023-04-15T17:56:59;4.17;;;3.60;;